<?xml version="1.0" encoding="UTF-8" standalone="no" ?>
<gpx xmlns="http://www.topografix.com/GPX/1/1" xmlns:xsi="http://www.w3.org/2001/XMLSchema-instance" xsi:schemaLocation="http://www.topografix.com/GPX/1/1 http://www.topografix.com/GPX/1/1/gpx.xsd" version="1.1" creator="VisuGPX - https://www.visugpx.com">
  <metadata>
    <name>CP trace 11-Circuit sur le plateau-Avoudrey</name>
  </metadata>
  <trk>
    <name><![CDATA[8995364-Circuit sur le plateau]]></name>
    <trkseg>
      <trkpt lat="47.12501" lon="6.34255">
        <ele>736.2</ele>
        <time>2019-09-06T22:04:46Z</time>
      </trkpt>
      <trkpt lat="47.12545" lon="6.34308">
        <ele>737</ele>
        <time>2019-09-06T22:06:54Z</time>
      </trkpt>
      <trkpt lat="47.12594" lon="6.34336">
        <ele>741</ele>
        <time>2019-09-06T22:07:01Z</time>
      </trkpt>
      <trkpt lat="47.12617" lon="6.34368">
        <ele>741</ele>
        <time>2019-09-06T22:07:26Z</time>
      </trkpt>
      <trkpt lat="47.12658" lon="6.3443">
        <ele>744</ele>
        <time>2019-09-06T22:07:48Z</time>
      </trkpt>
      <trkpt lat="47.12714" lon="6.34471">
        <ele>747.1</ele>
        <time>2019-09-06T22:08:03Z</time>
      </trkpt>
      <trkpt lat="47.12777" lon="6.34488">
        <ele>746.7</ele>
        <time>2019-09-06T22:08:43Z</time>
      </trkpt>
      <trkpt lat="47.12877" lon="6.34582">
        <ele>746</ele>
        <time>2019-09-06T22:11:06Z</time>
      </trkpt>
      <trkpt lat="47.12955" lon="6.34651">
        <ele>744.4</ele>
        <time>2019-09-06T22:11:48Z</time>
      </trkpt>
      <trkpt lat="47.12994" lon="6.34701">
        <ele>744.4</ele>
        <time>2019-09-06T22:12:13Z</time>
      </trkpt>
      <trkpt lat="47.13084" lon="6.34767">
        <ele>743</ele>
        <time>2019-09-06T22:12:48Z</time>
      </trkpt>
      <trkpt lat="47.13098" lon="6.34802">
        <ele>741</ele>
        <time>2019-09-06T22:12:56Z</time>
      </trkpt>
      <trkpt lat="47.13017" lon="6.34907">
        <ele>738</ele>
        <time>2019-09-06T22:13:12Z</time>
      </trkpt>
      <trkpt lat="47.13" lon="6.34955">
        <ele>735.4</ele>
        <time>2019-09-06T22:13:21Z</time>
      </trkpt>
      <trkpt lat="47.13031" lon="6.3502">
        <ele>733</ele>
        <time>2019-09-06T22:13:38Z</time>
      </trkpt>
      <trkpt lat="47.13083" lon="6.35077">
        <ele>728</ele>
        <time>2019-09-06T22:14:01Z</time>
      </trkpt>
      <trkpt lat="47.1316" lon="6.35078">
        <ele>725.4</ele>
        <time>2019-09-06T22:14:21Z</time>
      </trkpt>
      <trkpt lat="47.13195" lon="6.35083">
        <ele>724</ele>
        <time>2019-09-06T22:14:33Z</time>
      </trkpt>
      <trkpt lat="47.13253" lon="6.35077">
        <ele>722</ele>
        <time>2019-09-06T22:14:51Z</time>
      </trkpt>
      <trkpt lat="47.13336" lon="6.35048">
        <ele>716.4</ele>
        <time>2019-09-06T22:15:08Z</time>
      </trkpt>
      <trkpt lat="47.13445" lon="6.35045">
        <ele>713</ele>
        <time>2019-09-06T22:15:28Z</time>
      </trkpt>
      <trkpt lat="47.13497" lon="6.35034">
        <ele>712.2</ele>
        <time>2019-09-06T22:16:24Z</time>
      </trkpt>
      <trkpt lat="47.13527" lon="6.35032">
        <ele>710</ele>
        <time>2019-09-06T22:17:46Z</time>
      </trkpt>
      <trkpt lat="47.13613" lon="6.3505">
        <ele>705.5</ele>
        <time>2019-09-06T22:18:19Z</time>
      </trkpt>
      <trkpt lat="47.13734" lon="6.35111">
        <ele>703</ele>
        <time>2019-09-06T22:19:03Z</time>
      </trkpt>
      <trkpt lat="47.1378" lon="6.35118">
        <ele>702.1</ele>
        <time>2019-09-06T22:19:18Z</time>
      </trkpt>
      <trkpt lat="47.13806" lon="6.35103">
        <ele>702</ele>
        <time>2019-09-06T22:19:22Z</time>
      </trkpt>
      <trkpt lat="47.13849" lon="6.35068">
        <ele>702</ele>
        <time>2019-09-06T22:19:44Z</time>
      </trkpt>
      <trkpt lat="47.13917" lon="6.34987">
        <ele>699.4</ele>
        <time>2019-09-06T22:20:43Z</time>
      </trkpt>
      <trkpt lat="47.13963" lon="6.34968">
        <ele>698</ele>
        <time>2019-09-06T22:22:39Z</time>
      </trkpt>
      <trkpt lat="47.14013" lon="6.34964">
        <ele>696</ele>
        <time>2019-09-06T22:22:52Z</time>
      </trkpt>
      <trkpt lat="47.14081" lon="6.34989">
        <ele>691</ele>
        <time>2019-09-06T22:25:12Z</time>
      </trkpt>
      <trkpt lat="47.14119" lon="6.34987">
        <ele>688</ele>
        <time>2019-09-06T22:25:33Z</time>
      </trkpt>
      <trkpt lat="47.14259" lon="6.34913">
        <ele>680</ele>
        <time>2019-09-06T22:27:02Z</time>
      </trkpt>
      <trkpt lat="47.14291" lon="6.34898">
        <ele>678</ele>
        <time>2019-09-06T22:27:26Z</time>
      </trkpt>
      <trkpt lat="47.14359" lon="6.349">
        <ele>676</ele>
        <time>2019-09-06T22:27:40Z</time>
      </trkpt>
      <trkpt lat="47.14369" lon="6.34954">
        <ele>674</ele>
        <time>2019-09-06T22:28:21Z</time>
      </trkpt>
      <trkpt lat="47.14362" lon="6.35006">
        <ele>672</ele>
        <time>2019-09-06T22:30:00Z</time>
      </trkpt>
      <trkpt lat="47.14338" lon="6.35053">
        <ele>673</ele>
        <time>2019-09-06T22:30:34Z</time>
      </trkpt>
      <trkpt lat="47.14288" lon="6.35179">
        <ele>671</ele>
        <time>2019-09-06T22:30:51Z</time>
      </trkpt>
      <trkpt lat="47.14215" lon="6.35243">
        <ele>669</ele>
        <time>2019-09-06T22:31:19Z</time>
      </trkpt>
      <trkpt lat="47.14174" lon="6.35289">
        <ele>670</ele>
        <time>2019-09-06T22:38:49Z</time>
      </trkpt>
      <trkpt lat="47.14199" lon="6.35398">
        <ele>674</ele>
        <time>2019-09-06T22:51:08Z</time>
      </trkpt>
      <trkpt lat="47.1422" lon="6.35497">
        <ele>681</ele>
        <time>2019-09-06T22:51:35Z</time>
      </trkpt>
      <trkpt lat="47.14291" lon="6.35574">
        <ele>684</ele>
        <time>2019-09-06T22:55:33Z</time>
      </trkpt>
      <trkpt lat="47.14397" lon="6.35887">
        <ele>699</ele>
        <time>2019-09-06T23:01:04Z</time>
      </trkpt>
      <trkpt lat="47.14559" lon="6.35772">
        <ele>691.1</ele>
        <time>2019-09-06T23:08:08Z</time>
      </trkpt>
      <trkpt lat="47.14656" lon="6.36">
        <ele>690</ele>
        <time>2019-09-06T23:09:07Z</time>
      </trkpt>
      <trkpt lat="47.14714" lon="6.36185">
        <ele>692</ele>
        <time>2019-09-06T23:13:39Z</time>
      </trkpt>
      <trkpt lat="47.1473" lon="6.36288">
        <ele>693</ele>
        <time>2019-09-06T23:17:01Z</time>
      </trkpt>
      <trkpt lat="47.14733" lon="6.36365">
        <ele>692</ele>
        <time>2019-09-06T23:17:21Z</time>
      </trkpt>
      <trkpt lat="47.14756" lon="6.36458">
        <ele>690</ele>
        <time>2019-09-06T23:20:34Z</time>
      </trkpt>
      <trkpt lat="47.14779" lon="6.36483">
        <ele>690</ele>
        <time>2019-09-06T23:23:53Z</time>
      </trkpt>
      <trkpt lat="47.14816" lon="6.36495">
        <ele>691</ele>
        <time>2019-09-06T23:26:47Z</time>
      </trkpt>
      <trkpt lat="47.14829" lon="6.3651">
        <ele>692</ele>
        <time>2019-09-06T23:29:35Z</time>
      </trkpt>
      <trkpt lat="47.14781" lon="6.36629">
        <ele>695</ele>
        <time>2019-09-06T23:42:05Z</time>
      </trkpt>
      <trkpt lat="47.1467" lon="6.36964">
        <ele>700</ele>
        <time>2019-09-06T23:43:30Z</time>
      </trkpt>
      <trkpt lat="47.14674" lon="6.37057">
        <ele>702</ele>
        <time>2019-09-06T23:43:49Z</time>
      </trkpt>
      <trkpt lat="47.14667" lon="6.37149">
        <ele>703.3</ele>
        <time>2019-09-06T23:50:29Z</time>
      </trkpt>
      <trkpt lat="47.1465" lon="6.37285">
        <ele>705.8</ele>
        <time>2019-09-06T23:50:59Z</time>
      </trkpt>
      <trkpt lat="47.14692" lon="6.37326">
        <ele>704.4</ele>
        <time>2019-09-06T23:53:37Z</time>
      </trkpt>
      <trkpt lat="47.14718" lon="6.37371">
        <ele>706</ele>
        <time>2019-09-06T23:54:31Z</time>
      </trkpt>
      <trkpt lat="47.14754" lon="6.37408">
        <ele>708</ele>
        <time>2019-09-06T23:55:19Z</time>
      </trkpt>
      <trkpt lat="47.14755" lon="6.37437">
        <ele>706.9</ele>
        <time>2019-09-07T00:01:46Z</time>
      </trkpt>
      <trkpt lat="47.14734" lon="6.37505">
        <ele>701</ele>
        <time>2019-09-07T00:02:18Z</time>
      </trkpt>
      <trkpt lat="47.14707" lon="6.37573">
        <ele>695.7</ele>
        <time>2019-09-07T00:02:43Z</time>
      </trkpt>
      <trkpt lat="47.14714" lon="6.37608">
        <ele>691</ele>
        <time>2019-09-07T00:03:44Z</time>
      </trkpt>
      <trkpt lat="47.14758" lon="6.37659">
        <ele>689</ele>
        <time>2019-09-07T00:07:57Z</time>
      </trkpt>
      <trkpt lat="47.14793" lon="6.37669">
        <ele>689</ele>
        <time>2019-09-07T00:09:32Z</time>
      </trkpt>
      <trkpt lat="47.14802" lon="6.37693">
        <ele>689.5</ele>
        <time>2019-09-07T00:10:20Z</time>
      </trkpt>
      <trkpt lat="47.1484" lon="6.3775">
        <ele>690.1</ele>
      </trkpt>
      <trkpt lat="47.14774" lon="6.37859">
        <ele>698.2</ele>
      </trkpt>
      <trkpt lat="47.14738" lon="6.37852">
        <ele>701.1</ele>
      </trkpt>
      <trkpt lat="47.14849" lon="6.38179">
        <ele>715.1</ele>
      </trkpt>
      <trkpt lat="47.14751" lon="6.38295">
        <ele>711</ele>
      </trkpt>
      <trkpt lat="47.14673" lon="6.38354">
        <ele>715</ele>
      </trkpt>
      <trkpt lat="47.1464" lon="6.38372">
        <ele>718</ele>
      </trkpt>
      <trkpt lat="47.14614" lon="6.38397">
        <ele>719.3</ele>
      </trkpt>
      <trkpt lat="47.14603" lon="6.38432">
        <ele>722</ele>
      </trkpt>
      <trkpt lat="47.1458" lon="6.3847">
        <ele>726.2</ele>
      </trkpt>
      <trkpt lat="47.1455" lon="6.38504">
        <ele>730</ele>
      </trkpt>
      <trkpt lat="47.14542" lon="6.38537">
        <ele>731.1</ele>
      </trkpt>
      <trkpt lat="47.14557" lon="6.38572">
        <ele>731.2</ele>
      </trkpt>
      <trkpt lat="47.1458" lon="6.38607">
        <ele>735</ele>
      </trkpt>
      <trkpt lat="47.14588" lon="6.38639">
        <ele>736</ele>
      </trkpt>
      <trkpt lat="47.14553" lon="6.38624">
        <ele>737.5</ele>
      </trkpt>
      <trkpt lat="47.14518" lon="6.38605">
        <ele>738</ele>
      </trkpt>
      <trkpt lat="47.14478" lon="6.38591">
        <ele>739</ele>
      </trkpt>
      <trkpt lat="47.14444" lon="6.38579">
        <ele>737.9</ele>
      </trkpt>
      <trkpt lat="47.14405" lon="6.38587">
        <ele>742</ele>
      </trkpt>
      <trkpt lat="47.14377" lon="6.38607">
        <ele>742</ele>
      </trkpt>
      <trkpt lat="47.14427" lon="6.38657">
        <ele>748</ele>
      </trkpt>
      <trkpt lat="47.14584" lon="6.38773">
        <ele>757</ele>
      </trkpt>
      <trkpt lat="47.14697" lon="6.38853">
        <ele>767.9</ele>
      </trkpt>
      <trkpt lat="47.14836" lon="6.38952">
        <ele>776</ele>
      </trkpt>
      <trkpt lat="47.14961" lon="6.39049">
        <ele>781</ele>
      </trkpt>
      <trkpt lat="47.15094" lon="6.39141">
        <ele>781</ele>
      </trkpt>
      <trkpt lat="47.1515" lon="6.39213">
        <ele>780</ele>
      </trkpt>
      <trkpt lat="47.15264" lon="6.39251">
        <ele>775</ele>
      </trkpt>
      <trkpt lat="47.15334" lon="6.39268">
        <ele>774.1</ele>
      </trkpt>
      <trkpt lat="47.15341" lon="6.3938">
        <ele>786</ele>
      </trkpt>
      <trkpt lat="47.15389" lon="6.39503">
        <ele>799.4</ele>
      </trkpt>
      <trkpt lat="47.15444" lon="6.39634">
        <ele>806.4</ele>
      </trkpt>
      <trkpt lat="47.15468" lon="6.39778">
        <ele>819</ele>
      </trkpt>
      <trkpt lat="47.15491" lon="6.39915">
        <ele>818.6</ele>
      </trkpt>
      <trkpt lat="47.15409" lon="6.39943">
        <ele>814</ele>
      </trkpt>
      <trkpt lat="47.15312" lon="6.39956">
        <ele>814.1</ele>
      </trkpt>
      <trkpt lat="47.15163" lon="6.39776">
        <ele>811</ele>
      </trkpt>
      <trkpt lat="47.15144" lon="6.39764">
        <ele>810.9</ele>
      </trkpt>
      <trkpt lat="47.14999" lon="6.40041">
        <ele>810</ele>
      </trkpt>
      <trkpt lat="47.1495" lon="6.4003">
        <ele>811</ele>
      </trkpt>
      <trkpt lat="47.14917" lon="6.40012">
        <ele>814</ele>
      </trkpt>
      <trkpt lat="47.14882" lon="6.39977">
        <ele>814</ele>
      </trkpt>
      <trkpt lat="47.14864" lon="6.39938">
        <ele>814.4</ele>
      </trkpt>
      <trkpt lat="47.14837" lon="6.39951">
        <ele>815</ele>
      </trkpt>
      <trkpt lat="47.14801" lon="6.39967">
        <ele>812.8</ele>
      </trkpt>
      <trkpt lat="47.14829" lon="6.4002">
        <ele>814</ele>
      </trkpt>
      <trkpt lat="47.14857" lon="6.40078">
        <ele>815</ele>
      </trkpt>
      <trkpt lat="47.14908" lon="6.40146">
        <ele>807</ele>
      </trkpt>
      <trkpt lat="47.14921" lon="6.40173">
        <ele>803</ele>
      </trkpt>
      <trkpt lat="47.1492" lon="6.40198">
        <ele>802</ele>
      </trkpt>
      <trkpt lat="47.14908" lon="6.40222">
        <ele>799.4</ele>
      </trkpt>
      <trkpt lat="47.1483" lon="6.40243">
        <ele>795</ele>
      </trkpt>
      <trkpt lat="47.14745" lon="6.40222">
        <ele>785.5</ele>
      </trkpt>
      <trkpt lat="47.14645" lon="6.40183">
        <ele>770</ele>
      </trkpt>
      <trkpt lat="47.14589" lon="6.40185">
        <ele>764</ele>
      </trkpt>
      <trkpt lat="47.14449" lon="6.40113">
        <ele>762</ele>
      </trkpt>
      <trkpt lat="47.14411" lon="6.40078">
        <ele>756.8</ele>
      </trkpt>
      <trkpt lat="47.14312" lon="6.39936">
        <ele>745.9</ele>
      </trkpt>
      <trkpt lat="47.14294" lon="6.39987">
        <ele>746</ele>
      </trkpt>
      <trkpt lat="47.14297" lon="6.40019">
        <ele>749</ele>
      </trkpt>
      <trkpt lat="47.143" lon="6.40078">
        <ele>751</ele>
      </trkpt>
      <trkpt lat="47.143" lon="6.40143">
        <ele>754</ele>
      </trkpt>
      <trkpt lat="47.14335" lon="6.40151">
        <ele>760.8</ele>
      </trkpt>
      <trkpt lat="47.14378" lon="6.40192">
        <ele>764</ele>
      </trkpt>
      <trkpt lat="47.14447" lon="6.40283">
        <ele>773.5</ele>
      </trkpt>
      <trkpt lat="47.14534" lon="6.40396">
        <ele>777</ele>
      </trkpt>
      <trkpt lat="47.14621" lon="6.40482">
        <ele>779.8</ele>
      </trkpt>
      <trkpt lat="47.14654" lon="6.40514">
        <ele>782</ele>
      </trkpt>
      <trkpt lat="47.14689" lon="6.40536">
        <ele>786</ele>
      </trkpt>
      <trkpt lat="47.14727" lon="6.40552">
        <ele>786</ele>
      </trkpt>
      <trkpt lat="47.14815" lon="6.40582">
        <ele>792.5</ele>
      </trkpt>
      <trkpt lat="47.1491" lon="6.40617">
        <ele>795</ele>
      </trkpt>
      <trkpt lat="47.14962" lon="6.40616">
        <ele>797</ele>
      </trkpt>
      <trkpt lat="47.15066" lon="6.40606">
        <ele>798</ele>
      </trkpt>
      <trkpt lat="47.15148" lon="6.40615">
        <ele>800.3</ele>
      </trkpt>
      <trkpt lat="47.15714" lon="6.40704">
        <ele>808.5</ele>
      </trkpt>
      <trkpt lat="47.15953" lon="6.407">
        <ele>814</ele>
      </trkpt>
      <trkpt lat="47.1601" lon="6.4071">
        <ele>810.3</ele>
      </trkpt>
      <trkpt lat="47.16121" lon="6.40773">
        <ele>804</ele>
      </trkpt>
      <trkpt lat="47.16188" lon="6.40824">
        <ele>793</ele>
      </trkpt>
      <trkpt lat="47.16215" lon="6.4086">
        <ele>794.2</ele>
      </trkpt>
      <trkpt lat="47.16254" lon="6.4091">
        <ele>789</ele>
      </trkpt>
      <trkpt lat="47.16296" lon="6.40933">
        <ele>791</ele>
      </trkpt>
      <trkpt lat="47.16337" lon="6.40939">
        <ele>787</ele>
      </trkpt>
      <trkpt lat="47.16363" lon="6.40961">
        <ele>788.6</ele>
      </trkpt>
      <trkpt lat="47.16202" lon="6.41418">
        <ele>814.4</ele>
      </trkpt>
      <trkpt lat="47.16298" lon="6.41496">
        <ele>812.6</ele>
      </trkpt>
      <trkpt lat="47.16244" lon="6.41572">
        <ele>807</ele>
      </trkpt>
      <trkpt lat="47.16308" lon="6.41713">
        <ele>804</ele>
      </trkpt>
      <trkpt lat="47.16364" lon="6.41802">
        <ele>803.3</ele>
      </trkpt>
      <trkpt lat="47.16228" lon="6.41971">
        <ele>787.6</ele>
      </trkpt>
      <trkpt lat="47.16489" lon="6.42149">
        <ele>788.2</ele>
      </trkpt>
      <trkpt lat="47.16382" lon="6.42509">
        <ele>744.5</ele>
      </trkpt>
      <trkpt lat="47.16432" lon="6.42602">
        <ele>741.1</ele>
      </trkpt>
      <trkpt lat="47.16455" lon="6.42668">
        <ele>736.3</ele>
      </trkpt>
      <trkpt lat="47.16438" lon="6.42733">
        <ele>733</ele>
      </trkpt>
      <trkpt lat="47.16446" lon="6.42754">
        <ele>731</ele>
      </trkpt>
      <trkpt lat="47.16458" lon="6.42783">
        <ele>731</ele>
      </trkpt>
      <trkpt lat="47.16455" lon="6.42844">
        <ele>729</ele>
      </trkpt>
      <trkpt lat="47.16361" lon="6.42971">
        <ele>719</ele>
      </trkpt>
      <trkpt lat="47.16312" lon="6.43011">
        <ele>716.1</ele>
      </trkpt>
      <trkpt lat="47.16277" lon="6.43037">
        <ele>715</ele>
      </trkpt>
      <trkpt lat="47.16244" lon="6.43069">
        <ele>714</ele>
      </trkpt>
      <trkpt lat="47.1622" lon="6.43108">
        <ele>712</ele>
      </trkpt>
      <trkpt lat="47.16196" lon="6.43156">
        <ele>711.9</ele>
      </trkpt>
      <trkpt lat="47.16169" lon="6.43187">
        <ele>711</ele>
      </trkpt>
      <trkpt lat="47.16126" lon="6.43211">
        <ele>711</ele>
      </trkpt>
      <trkpt lat="47.16099" lon="6.43209">
        <ele>711.1</ele>
      </trkpt>
      <trkpt lat="47.16052" lon="6.43201">
        <ele>713</ele>
      </trkpt>
      <trkpt lat="47.1597" lon="6.43152">
        <ele>714.2</ele>
      </trkpt>
      <trkpt lat="47.15894" lon="6.43157">
        <ele>717</ele>
      </trkpt>
      <trkpt lat="47.15791" lon="6.43166">
        <ele>720</ele>
      </trkpt>
      <trkpt lat="47.15732" lon="6.43153">
        <ele>725</ele>
      </trkpt>
      <trkpt lat="47.15678" lon="6.43159">
        <ele>727</ele>
      </trkpt>
      <trkpt lat="47.15581" lon="6.43149">
        <ele>731</ele>
      </trkpt>
      <trkpt lat="47.15481" lon="6.43131">
        <ele>736</ele>
      </trkpt>
      <trkpt lat="47.15399" lon="6.43135">
        <ele>739.9</ele>
      </trkpt>
      <trkpt lat="47.15321" lon="6.43148">
        <ele>741</ele>
      </trkpt>
      <trkpt lat="47.15282" lon="6.43135">
        <ele>741</ele>
      </trkpt>
      <trkpt lat="47.15184" lon="6.43102">
        <ele>743</ele>
      </trkpt>
      <trkpt lat="47.15123" lon="6.43091">
        <ele>744</ele>
      </trkpt>
      <trkpt lat="47.1505" lon="6.43081">
        <ele>744</ele>
      </trkpt>
      <trkpt lat="47.14979" lon="6.43056">
        <ele>742</ele>
      </trkpt>
      <trkpt lat="47.14947" lon="6.43058">
        <ele>741.4</ele>
      </trkpt>
      <trkpt lat="47.14775" lon="6.43148">
        <ele>734.2</ele>
      </trkpt>
      <trkpt lat="47.14658" lon="6.43207">
        <ele>734</ele>
      </trkpt>
      <trkpt lat="47.14631" lon="6.43193">
        <ele>734</ele>
      </trkpt>
      <trkpt lat="47.14616" lon="6.43155">
        <ele>734</ele>
      </trkpt>
      <trkpt lat="47.14555" lon="6.43169">
        <ele>732.8</ele>
      </trkpt>
      <trkpt lat="47.14565" lon="6.43213">
        <ele>733</ele>
      </trkpt>
      <trkpt lat="47.14566" lon="6.43257">
        <ele>732.8</ele>
      </trkpt>
      <trkpt lat="47.14464" lon="6.43307">
        <ele>732</ele>
      </trkpt>
      <trkpt lat="47.14392" lon="6.43326">
        <ele>730</ele>
      </trkpt>
      <trkpt lat="47.14234" lon="6.43363">
        <ele>730.8</ele>
      </trkpt>
      <trkpt lat="47.14105" lon="6.43392">
        <ele>727</ele>
      </trkpt>
      <trkpt lat="47.14065" lon="6.43406">
        <ele>724.7</ele>
      </trkpt>
      <trkpt lat="47.14025" lon="6.43436">
        <ele>725</ele>
      </trkpt>
      <trkpt lat="47.13968" lon="6.43468">
        <ele>720</ele>
      </trkpt>
      <trkpt lat="47.13932" lon="6.43459">
        <ele>718</ele>
      </trkpt>
      <trkpt lat="47.13897" lon="6.43488">
        <ele>714.2</ele>
      </trkpt>
      <trkpt lat="47.13798" lon="6.43454">
        <ele>707</ele>
      </trkpt>
      <trkpt lat="47.13775" lon="6.43442">
        <ele>706</ele>
      </trkpt>
      <trkpt lat="47.13747" lon="6.43438">
        <ele>704.8</ele>
      </trkpt>
      <trkpt lat="47.13694" lon="6.43451">
        <ele>704</ele>
      </trkpt>
      <trkpt lat="47.13647" lon="6.43426">
        <ele>705</ele>
      </trkpt>
      <trkpt lat="47.13633" lon="6.43418">
        <ele>705</ele>
      </trkpt>
      <trkpt lat="47.13623" lon="6.43404">
        <ele>707.4</ele>
      </trkpt>
      <trkpt lat="47.13599" lon="6.43395">
        <ele>708</ele>
      </trkpt>
      <trkpt lat="47.13559" lon="6.43393">
        <ele>709</ele>
      </trkpt>
      <trkpt lat="47.13534" lon="6.43405">
        <ele>708.4</ele>
      </trkpt>
      <trkpt lat="47.1343" lon="6.43344">
        <ele>711</ele>
      </trkpt>
      <trkpt lat="47.13423" lon="6.43362">
        <ele>710</ele>
      </trkpt>
      <trkpt lat="47.13391" lon="6.43377">
        <ele>711</ele>
      </trkpt>
      <trkpt lat="47.13363" lon="6.4338">
        <ele>712</ele>
      </trkpt>
      <trkpt lat="47.13317" lon="6.43375">
        <ele>714</ele>
      </trkpt>
      <trkpt lat="47.1329" lon="6.43382">
        <ele>715</ele>
      </trkpt>
      <trkpt lat="47.13271" lon="6.43404">
        <ele>715</ele>
      </trkpt>
      <trkpt lat="47.13246" lon="6.43401">
        <ele>716</ele>
      </trkpt>
      <trkpt lat="47.13222" lon="6.43407">
        <ele>716</ele>
      </trkpt>
      <trkpt lat="47.13187" lon="6.43441">
        <ele>716</ele>
      </trkpt>
      <trkpt lat="47.13054" lon="6.43495">
        <ele>716</ele>
      </trkpt>
      <trkpt lat="47.12983" lon="6.43522">
        <ele>713</ele>
      </trkpt>
      <trkpt lat="47.12949" lon="6.43534">
        <ele>713</ele>
      </trkpt>
      <trkpt lat="47.12909" lon="6.43535">
        <ele>713</ele>
      </trkpt>
      <trkpt lat="47.12863" lon="6.43527">
        <ele>713.4</ele>
      </trkpt>
      <trkpt lat="47.1284" lon="6.43473">
        <ele>712.2</ele>
      </trkpt>
      <trkpt lat="47.12866" lon="6.43451">
        <ele>712</ele>
      </trkpt>
      <trkpt lat="47.12897" lon="6.43424">
        <ele>714</ele>
      </trkpt>
      <trkpt lat="47.12922" lon="6.43381">
        <ele>716.1</ele>
      </trkpt>
      <trkpt lat="47.12913" lon="6.43357">
        <ele>715</ele>
      </trkpt>
      <trkpt lat="47.12828" lon="6.43291">
        <ele>714</ele>
      </trkpt>
      <trkpt lat="47.12777" lon="6.43239">
        <ele>715</ele>
      </trkpt>
      <trkpt lat="47.12737" lon="6.43179">
        <ele>715.2</ele>
      </trkpt>
      <trkpt lat="47.12699" lon="6.43144">
        <ele>717</ele>
      </trkpt>
      <trkpt lat="47.12639" lon="6.43105">
        <ele>715</ele>
      </trkpt>
      <trkpt lat="47.12566" lon="6.4304">
        <ele>711.4</ele>
      </trkpt>
      <trkpt lat="47.12521" lon="6.42987">
        <ele>712</ele>
      </trkpt>
      <trkpt lat="47.12505" lon="6.42944">
        <ele>712</ele>
      </trkpt>
      <trkpt lat="47.12385" lon="6.42714">
        <ele>714</ele>
      </trkpt>
      <trkpt lat="47.12339" lon="6.42646">
        <ele>714</ele>
      </trkpt>
      <trkpt lat="47.12272" lon="6.42513">
        <ele>716</ele>
      </trkpt>
      <trkpt lat="47.12248" lon="6.42463">
        <ele>717</ele>
      </trkpt>
      <trkpt lat="47.12222" lon="6.42374">
        <ele>714</ele>
      </trkpt>
      <trkpt lat="47.12183" lon="6.42301">
        <ele>714.5</ele>
      </trkpt>
      <trkpt lat="47.12017" lon="6.42028">
        <ele>716</ele>
      </trkpt>
      <trkpt lat="47.1199" lon="6.42002">
        <ele>716</ele>
      </trkpt>
      <trkpt lat="47.11977" lon="6.41967">
        <ele>715</ele>
      </trkpt>
      <trkpt lat="47.11938" lon="6.41917">
        <ele>714</ele>
      </trkpt>
      <trkpt lat="47.11827" lon="6.41742">
        <ele>717</ele>
      </trkpt>
      <trkpt lat="47.11746" lon="6.4178">
        <ele>723</ele>
      </trkpt>
      <trkpt lat="47.11637" lon="6.41844">
        <ele>728.7</ele>
      </trkpt>
      <trkpt lat="47.11555" lon="6.41864">
        <ele>732.6</ele>
      </trkpt>
      <trkpt lat="47.11531" lon="6.41864">
        <ele>733</ele>
      </trkpt>
      <trkpt lat="47.11473" lon="6.41831">
        <ele>734.7</ele>
      </trkpt>
      <trkpt lat="47.11453" lon="6.41829">
        <ele>735</ele>
      </trkpt>
      <trkpt lat="47.11363" lon="6.41886">
        <ele>735.5</ele>
      </trkpt>
      <trkpt lat="47.11327" lon="6.41895">
        <ele>733</ele>
      </trkpt>
      <trkpt lat="47.11173" lon="6.41906">
        <ele>726</ele>
      </trkpt>
      <trkpt lat="47.11108" lon="6.41912">
        <ele>726</ele>
      </trkpt>
      <trkpt lat="47.11064" lon="6.41902">
        <ele>728.6</ele>
      </trkpt>
      <trkpt lat="47.11043" lon="6.41888">
        <ele>729</ele>
      </trkpt>
      <trkpt lat="47.11019" lon="6.41832">
        <ele>731</ele>
      </trkpt>
      <trkpt lat="47.1099" lon="6.41785">
        <ele>733</ele>
      </trkpt>
      <trkpt lat="47.10919" lon="6.41741">
        <ele>739</ele>
      </trkpt>
      <trkpt lat="47.1087" lon="6.41716">
        <ele>741</ele>
      </trkpt>
      <trkpt lat="47.10833" lon="6.41722">
        <ele>744</ele>
      </trkpt>
      <trkpt lat="47.10809" lon="6.41735">
        <ele>743.9</ele>
      </trkpt>
      <trkpt lat="47.1078" lon="6.41767">
        <ele>746</ele>
      </trkpt>
      <trkpt lat="47.10756" lon="6.41794">
        <ele>746.5</ele>
      </trkpt>
      <trkpt lat="47.10721" lon="6.41771">
        <ele>752</ele>
      </trkpt>
      <trkpt lat="47.10692" lon="6.41741">
        <ele>754.2</ele>
      </trkpt>
      <trkpt lat="47.10678" lon="6.41729">
        <ele>755</ele>
      </trkpt>
      <trkpt lat="47.10658" lon="6.41733">
        <ele>759</ele>
      </trkpt>
      <trkpt lat="47.10534" lon="6.41663">
        <ele>765.5</ele>
      </trkpt>
      <trkpt lat="47.10499" lon="6.4159">
        <ele>767</ele>
      </trkpt>
      <trkpt lat="47.10468" lon="6.4153">
        <ele>769</ele>
      </trkpt>
      <trkpt lat="47.10436" lon="6.41507">
        <ele>769.4</ele>
      </trkpt>
      <trkpt lat="47.104" lon="6.41503">
        <ele>770.5</ele>
      </trkpt>
      <trkpt lat="47.10346" lon="6.41494">
        <ele>773.9</ele>
      </trkpt>
      <trkpt lat="47.10297" lon="6.4149">
        <ele>774.7</ele>
      </trkpt>
      <trkpt lat="47.10276" lon="6.41472">
        <ele>774.8</ele>
      </trkpt>
      <trkpt lat="47.10261" lon="6.4144">
        <ele>775</ele>
      </trkpt>
      <trkpt lat="47.10251" lon="6.4141">
        <ele>776</ele>
      </trkpt>
      <trkpt lat="47.10235" lon="6.41379">
        <ele>777</ele>
      </trkpt>
      <trkpt lat="47.10124" lon="6.41305">
        <ele>774.6</ele>
      </trkpt>
      <trkpt lat="47.10108" lon="6.41347">
        <ele>764</ele>
      </trkpt>
      <trkpt lat="47.10103" lon="6.41404">
        <ele>760</ele>
      </trkpt>
      <trkpt lat="47.10116" lon="6.41454">
        <ele>756.2</ele>
      </trkpt>
      <trkpt lat="47.10128" lon="6.41515">
        <ele>754</ele>
      </trkpt>
      <trkpt lat="47.1013" lon="6.41553">
        <ele>754</ele>
      </trkpt>
      <trkpt lat="47.10139" lon="6.41632">
        <ele>753.1</ele>
      </trkpt>
      <trkpt lat="47.10159" lon="6.41701">
        <ele>751</ele>
      </trkpt>
      <trkpt lat="47.10163" lon="6.41738">
        <ele>750</ele>
      </trkpt>
      <trkpt lat="47.10174" lon="6.41771">
        <ele>753</ele>
      </trkpt>
      <trkpt lat="47.10187" lon="6.41834">
        <ele>750</ele>
      </trkpt>
      <trkpt lat="47.10204" lon="6.41851">
        <ele>751.4</ele>
      </trkpt>
      <trkpt lat="47.10289" lon="6.41905">
        <ele>758</ele>
      </trkpt>
      <trkpt lat="47.10305" lon="6.41938">
        <ele>756.3</ele>
      </trkpt>
      <trkpt lat="47.10305" lon="6.41983">
        <ele>755</ele>
      </trkpt>
      <trkpt lat="47.10293" lon="6.41996">
        <ele>755.9</ele>
      </trkpt>
      <trkpt lat="47.10265" lon="6.41992">
        <ele>758</ele>
      </trkpt>
      <trkpt lat="47.10221" lon="6.41992">
        <ele>760</ele>
      </trkpt>
      <trkpt lat="47.10177" lon="6.41987">
        <ele>758</ele>
      </trkpt>
      <trkpt lat="47.10163" lon="6.41964">
        <ele>754</ele>
      </trkpt>
      <trkpt lat="47.10136" lon="6.41957">
        <ele>753.6</ele>
      </trkpt>
      <trkpt lat="47.1007" lon="6.41941">
        <ele>752</ele>
      </trkpt>
      <trkpt lat="47.10026" lon="6.41937">
        <ele>752</ele>
      </trkpt>
      <trkpt lat="47.10004" lon="6.41928">
        <ele>750.1</ele>
      </trkpt>
      <trkpt lat="47.09985" lon="6.41907">
        <ele>747</ele>
      </trkpt>
      <trkpt lat="47.09953" lon="6.41885">
        <ele>746</ele>
      </trkpt>
      <trkpt lat="47.09929" lon="6.41874">
        <ele>746</ele>
      </trkpt>
      <trkpt lat="47.09898" lon="6.41906">
        <ele>747</ele>
      </trkpt>
      <trkpt lat="47.09865" lon="6.41938">
        <ele>752.3</ele>
      </trkpt>
      <trkpt lat="47.09816" lon="6.41961">
        <ele>752</ele>
      </trkpt>
      <trkpt lat="47.09782" lon="6.41952">
        <ele>751.2</ele>
      </trkpt>
      <trkpt lat="47.09732" lon="6.41911">
        <ele>749</ele>
      </trkpt>
      <trkpt lat="47.09723" lon="6.41889">
        <ele>749.2</ele>
      </trkpt>
      <trkpt lat="47.09708" lon="6.41868">
        <ele>749</ele>
      </trkpt>
      <trkpt lat="47.09697" lon="6.41835">
        <ele>749</ele>
      </trkpt>
      <trkpt lat="47.09675" lon="6.41769">
        <ele>750</ele>
      </trkpt>
      <trkpt lat="47.09652" lon="6.41726">
        <ele>753.3</ele>
      </trkpt>
      <trkpt lat="47.09654" lon="6.41671">
        <ele>755</ele>
      </trkpt>
      <trkpt lat="47.09651" lon="6.41614">
        <ele>762</ele>
      </trkpt>
      <trkpt lat="47.09613" lon="6.41621">
        <ele>765</ele>
      </trkpt>
      <trkpt lat="47.0955" lon="6.41622">
        <ele>771</ele>
      </trkpt>
      <trkpt lat="47.09516" lon="6.41623">
        <ele>772</ele>
      </trkpt>
      <trkpt lat="47.0949" lon="6.41639">
        <ele>777.4</ele>
      </trkpt>
      <trkpt lat="47.09421" lon="6.41323">
        <ele>791</ele>
      </trkpt>
      <trkpt lat="47.09395" lon="6.41221">
        <ele>797</ele>
      </trkpt>
      <trkpt lat="47.09366" lon="6.4115">
        <ele>797</ele>
      </trkpt>
      <trkpt lat="47.09306" lon="6.41015">
        <ele>805</ele>
      </trkpt>
      <trkpt lat="47.09228" lon="6.40841">
        <ele>809</ele>
      </trkpt>
      <trkpt lat="47.09138" lon="6.40655">
        <ele>805.4</ele>
      </trkpt>
      <trkpt lat="47.09109" lon="6.40583">
        <ele>805</ele>
      </trkpt>
      <trkpt lat="47.09093" lon="6.40511">
        <ele>805</ele>
      </trkpt>
      <trkpt lat="47.09088" lon="6.40469">
        <ele>807</ele>
      </trkpt>
      <trkpt lat="47.09106" lon="6.40416">
        <ele>814</ele>
      </trkpt>
      <trkpt lat="47.09133" lon="6.4036">
        <ele>815.9</ele>
      </trkpt>
      <trkpt lat="47.09143" lon="6.40349">
        <ele>815</ele>
      </trkpt>
      <trkpt lat="47.09155" lon="6.40345">
        <ele>814</ele>
      </trkpt>
      <trkpt lat="47.09166" lon="6.40359">
        <ele>814</ele>
      </trkpt>
      <trkpt lat="47.0918" lon="6.40428">
        <ele>807.9</ele>
      </trkpt>
      <trkpt lat="47.09191" lon="6.40556">
        <ele>801</ele>
      </trkpt>
      <trkpt lat="47.09202" lon="6.40594">
        <ele>798</ele>
      </trkpt>
      <trkpt lat="47.09247" lon="6.4067">
        <ele>797</ele>
      </trkpt>
      <trkpt lat="47.09341" lon="6.4081">
        <ele>799</ele>
      </trkpt>
      <trkpt lat="47.09394" lon="6.40954">
        <ele>791.2</ele>
      </trkpt>
      <trkpt lat="47.09449" lon="6.41084">
        <ele>789</ele>
      </trkpt>
      <trkpt lat="47.0951" lon="6.41207">
        <ele>787</ele>
      </trkpt>
      <trkpt lat="47.09543" lon="6.41246">
        <ele>786.8</ele>
      </trkpt>
      <trkpt lat="47.09579" lon="6.41262">
        <ele>786</ele>
      </trkpt>
      <trkpt lat="47.09627" lon="6.41266">
        <ele>786</ele>
      </trkpt>
      <trkpt lat="47.09678" lon="6.41254">
        <ele>780.8</ele>
      </trkpt>
      <trkpt lat="47.09829" lon="6.41208">
        <ele>765</ele>
      </trkpt>
      <trkpt lat="47.09873" lon="6.41222">
        <ele>765.1</ele>
      </trkpt>
      <trkpt lat="47.09937" lon="6.41253">
        <ele>766</ele>
      </trkpt>
      <trkpt lat="47.09983" lon="6.4127">
        <ele>769</ele>
      </trkpt>
      <trkpt lat="47.10068" lon="6.41281">
        <ele>771.9</ele>
      </trkpt>
      <trkpt lat="47.10105" lon="6.41295">
        <ele>774</ele>
      </trkpt>
      <trkpt lat="47.10141" lon="6.41322">
        <ele>774</ele>
      </trkpt>
      <trkpt lat="47.10214" lon="6.41371">
        <ele>773.7</ele>
      </trkpt>
      <trkpt lat="47.10237" lon="6.41392">
        <ele>774</ele>
      </trkpt>
      <trkpt lat="47.10252" lon="6.41423">
        <ele>775</ele>
      </trkpt>
      <trkpt lat="47.10265" lon="6.41461">
        <ele>775</ele>
      </trkpt>
      <trkpt lat="47.10283" lon="6.41487">
        <ele>774.6</ele>
      </trkpt>
      <trkpt lat="47.103" lon="6.41499">
        <ele>775</ele>
      </trkpt>
      <trkpt lat="47.10332" lon="6.415">
        <ele>774</ele>
      </trkpt>
      <trkpt lat="47.10369" lon="6.41503">
        <ele>771</ele>
      </trkpt>
      <trkpt lat="47.10425" lon="6.41511">
        <ele>769</ele>
      </trkpt>
      <trkpt lat="47.10434" lon="6.41503">
        <ele>769</ele>
      </trkpt>
      <trkpt lat="47.10422" lon="6.41486">
        <ele>770</ele>
      </trkpt>
      <trkpt lat="47.10392" lon="6.41462">
        <ele>773</ele>
      </trkpt>
      <trkpt lat="47.10364" lon="6.41452">
        <ele>774</ele>
      </trkpt>
      <trkpt lat="47.10316" lon="6.41404">
        <ele>779</ele>
      </trkpt>
      <trkpt lat="47.10264" lon="6.41345">
        <ele>781.8</ele>
      </trkpt>
      <trkpt lat="47.10217" lon="6.41282">
        <ele>785</ele>
      </trkpt>
      <trkpt lat="47.1018" lon="6.4121">
        <ele>793.5</ele>
      </trkpt>
      <trkpt lat="47.10159" lon="6.41147">
        <ele>801</ele>
      </trkpt>
      <trkpt lat="47.10151" lon="6.41051">
        <ele>809.5</ele>
      </trkpt>
      <trkpt lat="47.10149" lon="6.40983">
        <ele>814</ele>
      </trkpt>
      <trkpt lat="47.10156" lon="6.40909">
        <ele>821.2</ele>
      </trkpt>
      <trkpt lat="47.10212" lon="6.40785">
        <ele>824</ele>
      </trkpt>
      <trkpt lat="47.10271" lon="6.40632">
        <ele>831.9</ele>
      </trkpt>
      <trkpt lat="47.10144" lon="6.4033">
        <ele>824</ele>
      </trkpt>
      <trkpt lat="47.10146" lon="6.40304">
        <ele>823</ele>
      </trkpt>
      <trkpt lat="47.1016" lon="6.403">
        <ele>822</ele>
      </trkpt>
      <trkpt lat="47.10189" lon="6.40326">
        <ele>817</ele>
      </trkpt>
      <trkpt lat="47.1021" lon="6.40331">
        <ele>816</ele>
      </trkpt>
      <trkpt lat="47.10224" lon="6.40323">
        <ele>817</ele>
      </trkpt>
      <trkpt lat="47.1024" lon="6.40297">
        <ele>816</ele>
      </trkpt>
      <trkpt lat="47.10253" lon="6.40248">
        <ele>815.5</ele>
      </trkpt>
      <trkpt lat="47.10261" lon="6.40232">
        <ele>817</ele>
      </trkpt>
      <trkpt lat="47.10318" lon="6.40223">
        <ele>817.9</ele>
      </trkpt>
      <trkpt lat="47.10324" lon="6.40162">
        <ele>817</ele>
      </trkpt>
      <trkpt lat="47.10341" lon="6.40116">
        <ele>814</ele>
      </trkpt>
      <trkpt lat="47.10359" lon="6.40056">
        <ele>813</ele>
      </trkpt>
      <trkpt lat="47.10379" lon="6.39958">
        <ele>810.7</ele>
      </trkpt>
      <trkpt lat="47.10396" lon="6.39852">
        <ele>808</ele>
      </trkpt>
      <trkpt lat="47.1042" lon="6.39744">
        <ele>799</ele>
      </trkpt>
      <trkpt lat="47.10431" lon="6.39652">
        <ele>792.9</ele>
      </trkpt>
      <trkpt lat="47.10469" lon="6.39608">
        <ele>793</ele>
      </trkpt>
      <trkpt lat="47.10512" lon="6.39578">
        <ele>791.5</ele>
      </trkpt>
      <trkpt lat="47.10556" lon="6.39434">
        <ele>791.3</ele>
      </trkpt>
      <trkpt lat="47.10589" lon="6.393">
        <ele>790.3</ele>
      </trkpt>
      <trkpt lat="47.10602" lon="6.39239">
        <ele>795</ele>
      </trkpt>
      <trkpt lat="47.10682" lon="6.39067">
        <ele>792.8</ele>
      </trkpt>
      <trkpt lat="47.10698" lon="6.3902">
        <ele>794</ele>
      </trkpt>
      <trkpt lat="47.10728" lon="6.38865">
        <ele>788.8</ele>
      </trkpt>
      <trkpt lat="47.10738" lon="6.38833">
        <ele>784</ele>
      </trkpt>
      <trkpt lat="47.10797" lon="6.3874">
        <ele>774.1</ele>
      </trkpt>
      <trkpt lat="47.10815" lon="6.38694">
        <ele>772</ele>
      </trkpt>
      <trkpt lat="47.10824" lon="6.38595">
        <ele>766.1</ele>
      </trkpt>
      <trkpt lat="47.10834" lon="6.38564">
        <ele>764</ele>
      </trkpt>
      <trkpt lat="47.10867" lon="6.38527">
        <ele>765</ele>
      </trkpt>
      <trkpt lat="47.10917" lon="6.38493">
        <ele>768.7</ele>
      </trkpt>
      <trkpt lat="47.10938" lon="6.38461">
        <ele>771</ele>
      </trkpt>
      <trkpt lat="47.10985" lon="6.38348">
        <ele>773.8</ele>
      </trkpt>
      <trkpt lat="47.11018" lon="6.38291">
        <ele>775</ele>
      </trkpt>
      <trkpt lat="47.11051" lon="6.38255">
        <ele>776</ele>
      </trkpt>
      <trkpt lat="47.11088" lon="6.38223">
        <ele>777</ele>
      </trkpt>
      <trkpt lat="47.11121" lon="6.38142">
        <ele>778</ele>
      </trkpt>
      <trkpt lat="47.11141" lon="6.38047">
        <ele>777</ele>
      </trkpt>
      <trkpt lat="47.11135" lon="6.38003">
        <ele>776.4</ele>
      </trkpt>
      <trkpt lat="47.11135" lon="6.37975">
        <ele>773</ele>
      </trkpt>
      <trkpt lat="47.11194" lon="6.37937">
        <ele>769</ele>
      </trkpt>
      <trkpt lat="47.11231" lon="6.37913">
        <ele>763.5</ele>
      </trkpt>
      <trkpt lat="47.11248" lon="6.37879">
        <ele>762</ele>
      </trkpt>
      <trkpt lat="47.11258" lon="6.37856">
        <ele>761</ele>
      </trkpt>
      <trkpt lat="47.11253" lon="6.37805">
        <ele>758.6</ele>
      </trkpt>
      <trkpt lat="47.1125" lon="6.3777">
        <ele>757</ele>
      </trkpt>
      <trkpt lat="47.11247" lon="6.37749">
        <ele>757</ele>
      </trkpt>
      <trkpt lat="47.11233" lon="6.37716">
        <ele>754.9</ele>
      </trkpt>
      <trkpt lat="47.11219" lon="6.37696">
        <ele>755</ele>
      </trkpt>
      <trkpt lat="47.11211" lon="6.37666">
        <ele>753.5</ele>
      </trkpt>
      <trkpt lat="47.11213" lon="6.37623">
        <ele>753</ele>
      </trkpt>
      <trkpt lat="47.1122" lon="6.37587">
        <ele>753</ele>
      </trkpt>
      <trkpt lat="47.11231" lon="6.37569">
        <ele>751</ele>
      </trkpt>
      <trkpt lat="47.11206" lon="6.37466">
        <ele>748.7</ele>
      </trkpt>
      <trkpt lat="47.11178" lon="6.37403">
        <ele>748</ele>
      </trkpt>
      <trkpt lat="47.11166" lon="6.37401">
        <ele>749</ele>
      </trkpt>
      <trkpt lat="47.11154" lon="6.37389">
        <ele>749</ele>
      </trkpt>
      <trkpt lat="47.11129" lon="6.37336">
        <ele>749</ele>
      </trkpt>
      <trkpt lat="47.11114" lon="6.37294">
        <ele>750</ele>
      </trkpt>
      <trkpt lat="47.11103" lon="6.3725">
        <ele>751</ele>
      </trkpt>
      <trkpt lat="47.11127" lon="6.37143">
        <ele>752</ele>
      </trkpt>
      <trkpt lat="47.11169" lon="6.3705">
        <ele>745.7</ele>
      </trkpt>
      <trkpt lat="47.112" lon="6.36942">
        <ele>745</ele>
      </trkpt>
      <trkpt lat="47.11255" lon="6.3688">
        <ele>738</ele>
      </trkpt>
      <trkpt lat="47.11307" lon="6.3681">
        <ele>738.2</ele>
      </trkpt>
      <trkpt lat="47.1131" lon="6.36715">
        <ele>738</ele>
      </trkpt>
      <trkpt lat="47.11321" lon="6.36678">
        <ele>737</ele>
      </trkpt>
      <trkpt lat="47.11347" lon="6.3663">
        <ele>733</ele>
      </trkpt>
      <trkpt lat="47.11379" lon="6.36585">
        <ele>732</ele>
      </trkpt>
      <trkpt lat="47.11397" lon="6.36563">
        <ele>732</ele>
      </trkpt>
      <trkpt lat="47.11412" lon="6.36533">
        <ele>732.3</ele>
      </trkpt>
      <trkpt lat="47.11435" lon="6.36589">
        <ele>730</ele>
      </trkpt>
      <trkpt lat="47.11502" lon="6.3667">
        <ele>727</ele>
      </trkpt>
      <trkpt lat="47.11562" lon="6.36745">
        <ele>726.6</ele>
      </trkpt>
      <trkpt lat="47.11623" lon="6.36825">
        <ele>729</ele>
      </trkpt>
      <trkpt lat="47.11643" lon="6.36876">
        <ele>730</ele>
      </trkpt>
      <trkpt lat="47.11648" lon="6.36885">
        <ele>730</ele>
      </trkpt>
      <trkpt lat="47.11662" lon="6.36891">
        <ele>730.1</ele>
      </trkpt>
      <trkpt lat="47.11699" lon="6.36738">
        <ele>732.1</ele>
      </trkpt>
      <trkpt lat="47.1172" lon="6.36675">
        <ele>733</ele>
      </trkpt>
      <trkpt lat="47.11737" lon="6.36542">
        <ele>734</ele>
      </trkpt>
      <trkpt lat="47.11742" lon="6.36505">
        <ele>735.1</ele>
      </trkpt>
      <trkpt lat="47.11769" lon="6.36395">
        <ele>736</ele>
      </trkpt>
      <trkpt lat="47.11786" lon="6.36301">
        <ele>737.1</ele>
      </trkpt>
      <trkpt lat="47.11794" lon="6.36272">
        <ele>737</ele>
      </trkpt>
      <trkpt lat="47.11847" lon="6.36166">
        <ele>743</ele>
      </trkpt>
      <trkpt lat="47.11872" lon="6.36108">
        <ele>745</ele>
      </trkpt>
      <trkpt lat="47.1189" lon="6.36043">
        <ele>745.5</ele>
      </trkpt>
      <trkpt lat="47.11888" lon="6.35885">
        <ele>740</ele>
      </trkpt>
      <trkpt lat="47.1181" lon="6.3577">
        <ele>739.5</ele>
      </trkpt>
      <trkpt lat="47.11734" lon="6.35605">
        <ele>738.3</ele>
      </trkpt>
      <trkpt lat="47.11696" lon="6.3552">
        <ele>742.4</ele>
      </trkpt>
      <trkpt lat="47.11593" lon="6.35449">
        <ele>743</ele>
      </trkpt>
      <trkpt lat="47.11713" lon="6.35349">
        <ele>744</ele>
      </trkpt>
      <trkpt lat="47.11798" lon="6.35255">
        <ele>744</ele>
      </trkpt>
      <trkpt lat="47.11882" lon="6.35188">
        <ele>742</ele>
      </trkpt>
      <trkpt lat="47.11932" lon="6.3514">
        <ele>740</ele>
      </trkpt>
      <trkpt lat="47.11955" lon="6.35134">
        <ele>740</ele>
      </trkpt>
      <trkpt lat="47.12032" lon="6.35089">
        <ele>739</ele>
      </trkpt>
      <trkpt lat="47.12078" lon="6.3507">
        <ele>739</ele>
      </trkpt>
      <trkpt lat="47.12142" lon="6.35052">
        <ele>738</ele>
      </trkpt>
      <trkpt lat="47.12172" lon="6.35041">
        <ele>738</ele>
      </trkpt>
      <trkpt lat="47.12192" lon="6.3501">
        <ele>737.8</ele>
      </trkpt>
      <trkpt lat="47.12197" lon="6.35073">
        <ele>738</ele>
      </trkpt>
      <trkpt lat="47.12188" lon="6.35256">
        <ele>740.5</ele>
      </trkpt>
      <trkpt lat="47.12197" lon="6.35315">
        <ele>740</ele>
      </trkpt>
      <trkpt lat="47.12243" lon="6.35429">
        <ele>740</ele>
      </trkpt>
      <trkpt lat="47.12287" lon="6.35547">
        <ele>741.2</ele>
      </trkpt>
      <trkpt lat="47.12464" lon="6.3543">
        <ele>749</ele>
      </trkpt>
      <trkpt lat="47.12641" lon="6.3532">
        <ele>750.3</ele>
      </trkpt>
      <trkpt lat="47.12613" lon="6.35214">
        <ele>750</ele>
      </trkpt>
      <trkpt lat="47.126" lon="6.35162">
        <ele>748</ele>
      </trkpt>
      <trkpt lat="47.12593" lon="6.35107">
        <ele>749</ele>
      </trkpt>
      <trkpt lat="47.12582" lon="6.34995">
        <ele>751</ele>
      </trkpt>
      <trkpt lat="47.12574" lon="6.34936">
        <ele>749.2</ele>
      </trkpt>
      <trkpt lat="47.12571" lon="6.34835">
        <ele>746</ele>
      </trkpt>
      <trkpt lat="47.12545" lon="6.34723">
        <ele>742.1</ele>
      </trkpt>
      <trkpt lat="47.12512" lon="6.34582">
        <ele>737</ele>
      </trkpt>
      <trkpt lat="47.12505" lon="6.34553">
        <ele>738</ele>
      </trkpt>
      <trkpt lat="47.12492" lon="6.34533">
        <ele>736</ele>
      </trkpt>
      <trkpt lat="47.12471" lon="6.34487">
        <ele>734</ele>
      </trkpt>
      <trkpt lat="47.12431" lon="6.3433">
        <ele>731.1</ele>
      </trkpt>
      <trkpt lat="47.12409" lon="6.34257">
        <ele>731</ele>
      </trkpt>
      <trkpt lat="47.12449" lon="6.34233">
        <ele>733</ele>
      </trkpt>
      <trkpt lat="47.1246" lon="6.3422">
        <ele>733</ele>
      </trkpt>
      <trkpt lat="47.12494" lon="6.34233">
        <ele>734.1</ele>
      </trkpt>
    </trkseg>
  </trk>
</gpx>